Time;durP1;ratioP1;P1;durP2;ratioP2;P2;SDS_P1;SDS_P2;PMS_P1;PMS_P2;Temp;Humidity;BMP_temperature;BMP_pressure;BME280_temperature;BME280_humidity;BME280_pressure;Samples;Min_cycle;Max_cycle;Signal;HPM_P1;HPM_P2
2023/02/02 00:00:13;;;;;;;12.38;2.50;;;5.80;99.90;;;;;;5074372;28;20017;-62
2023/02/02 00:02:38;;;;;;;7.88;2.45;;;5.80;99.90;;;;;;5074430;28;20025;-62
2023/02/02 00:05:04;;;;;;;12.52;1.85;;;5.90;99.90;;;;;;5074168;28;20063;-62
2023/02/02 00:07:30;;;;;;;14.20;2.17;;;5.90;99.90;;;;;;5074370;28;20417;-62
2023/02/02 00:09:55;;;;;;;14.15;2.58;;;5.90;99.90;;;;;;5074086;28;20028;-63
2023/02/02 00:12:21;;;;;;;16.92;2.65;;;5.80;99.90;;;;;;5074061;28;20021;-62
2023/02/02 00:14:46;;;;;;;8.93;2.22;;;5.90;99.90;;;;;;5074240;28;20108;-62
2023/02/02 00:17:12;;;;;;;9.95;2.17;;;5.90;99.90;;;;;;5073798;28;20525;-62
2023/02/02 00:19:37;;;;;;;13.65;1.63;;;5.80;99.90;;;;;;5073890;28;20081;-62
2023/02/02 00:22:03;;;;;;;14.95;2.10;;;5.80;99.90;;;;;;5073863;28;20356;-62
2023/02/02 00:24:28;;;;;;;7.13;1.63;;;5.80;99.90;;;;;;5073777;28;20098;-62
2023/02/02 00:26:56;;;;;;;9.85;2.15;;;5.70;99.90;;;;;;5073482;28;20351;-62
2023/02/02 00:29:30;;;;;;;7.43;1.80;;;5.70;99.90;;;;;;5073774;28;20032;-62
2023/02/02 00:31:56;;;;;;;10.88;1.95;;;5.70;99.90;;;;;;5073711;28;20482;-62
2023/02/02 00:34:22;;;;;;;11.38;2.20;;;5.70;99.90;;;;;;5073678;28;20039;-62
2023/02/02 00:36:49;;;;;;;10.27;1.90;;;5.70;99.90;;;;;;5073456;28;20028;-62
2023/02/02 00:39:17;;;;;;;16.50;2.65;;;5.70;99.90;;;;;;5073828;28;20478;-63
2023/02/02 00:41:43;;;;;;;8.35;2.00;;;5.70;99.90;;;;;;5073589;28;20016;-63
2023/02/02 00:46:54;;;;;;;14.25;2.70;;;5.70;99.90;;;;;;5073286;28;20044;-62
2023/02/02 00:49:20;;;;;;;6.75;1.75;;;5.60;99.90;;;;;;5073473;28;20474;-62
2023/02/02 00:51:45;;;;;;;12.93;2.13;;;5.60;99.90;;;;;;5073417;28;20028;-62
2023/02/02 00:54:13;;;;;;;15.60;2.10;;;5.60;99.90;;;;;;5073619;28;20107;-62
2023/02/02 00:56:39;;;;;;;13.52;2.67;;;5.50;99.90;;;;;;5073607;28;20389;-62
2023/02/02 00:59:04;;;;;;;11.38;2.33;;;5.50;99.90;;;;;;5073228;28;20024;-62
2023/02/02 01:01:30;;;;;;;10.68;2.47;;;5.40;99.90;;;;;;5073294;28;20020;-62
2023/02/02 01:03:55;;;;;;;11.32;2.88;;;5.30;99.90;;;;;;5073264;28;20066;-62
2023/02/02 01:06:21;;;;;;;7.10;1.98;;;5.40;99.90;;;;;;5073302;28;20454;-62
2023/02/02 01:08:46;;;;;;;13.32;2.22;;;5.40;99.90;;;;;;5073481;28;20475;-62
2023/02/02 01:11:12;;;;;;;14.35;2.92;;;5.40;99.90;;;;;;5073444;28;20505;-62
2023/02/02 01:13:38;;;;;;;14.88;2.50;;;5.50;99.90;;;;;;5073149;28;20107;-62
2023/02/02 01:16:04;;;;;;;10.18;2.20;;;5.50;99.90;;;;;;5073218;28;20016;-62
2023/02/02 01:18:30;;;;;;;9.40;2.00;;;5.50;99.90;;;;;;5071647;28;20094;-62
2023/02/02 01:21:01;;;;;;;14.13;2.28;;;5.50;99.90;;;;;;5073123;28;20470;-62
2023/02/02 01:23:27;;;;;;;10.48;1.92;;;5.50;99.90;;;;;;5072186;28;20068;-62
2023/02/02 01:25:54;;;;;;;8.80;2.20;;;5.60;99.90;;;;;;5073323;28;20025;-62
2023/02/02 01:28:20;;;;;;;13.15;2.33;;;5.60;99.90;;;;;;5073269;28;20454;-62
2023/02/02 01:30:46;;;;;;;8.80;2.22;;;5.60;99.90;;;;;;5073047;28;20054;-63
2023/02/02 01:33:11;;;;;;;13.15;2.65;;;5.60;99.90;;;;;;5073026;28;20048;-62
2023/02/02 01:35:43;;;;;;;12.15;2.55;;;5.60;99.90;;;;;;5073221;28;20020;-62
2023/02/02 01:38:08;;;;;;;12.63;2.92;;;5.60;99.90;;;;;;5073119;28;20029;-62
2023/02/02 01:40:34;;;;;;;10.38;2.70;;;5.60;99.90;;;;;;5076524;28;20025;-62
2023/02/02 01:42:59;;;;;;;16.33;3.17;;;5.60;99.90;;;;;;5075697;28;20024;-62
2023/02/02 01:45:28;;;;;;;15.75;3.03;;;5.60;99.90;;;;;;5075717;28;20027;-62
2023/02/02 01:47:57;;;;;;;12.48;2.58;;;5.70;99.90;;;;;;5076745;28;20033;-62
2023/02/02 01:50:28;;;;;;;13.73;2.95;;;5.70;99.90;;;;;;5076789;28;20497;-62
2023/02/02 01:52:57;;;;;;;17.60;2.97;;;5.70;99.90;;;;;;5076945;28;20478;-62
2023/02/02 01:55:25;;;;;;;13.60;3.50;;;5.60;99.90;;;;;;5076680;28;20063;-62
2023/02/02 01:57:57;;;;;;;14.10;4.07;;;5.60;99.90;;;;;;5076497;28;20081;-62
2023/02/02 02:00:26;;;;;;;16.42;4.00;;;5.60;99.90;;;;;;5076560;28;20031;-62
2023/02/02 02:02:55;;;;;;;14.07;3.33;;;5.60;99.90;;;;;;5076768;28;20029;-62
2023/02/02 02:05:29;;;;;;;15.80;3.60;;;5.50;99.90;;;;;;5075268;28;20041;-62
2023/02/02 02:08:02;;;;;;;12.55;4.53;;;5.50;99.90;;;;;;5075554;28;20559;-62
2023/02/02 02:10:28;;;;;;;20.65;4.88;;;5.60;99.90;;;;;;5076408;28;20087;-62
2023/02/02 02:12:54;;;;;;;16.20;4.22;;;5.60;99.90;;;;;;5076590;28;20505;-62
2023/02/02 02:18:37;;;;;;;23.98;5.68;;;5.60;99.90;;;;;;5075889;28;20079;-62
2023/02/02 02:28:00;;;;;;;24.20;5.18;;;5.70;99.90;;;;;;5075879;28;20036;-62
2023/02/02 02:31:05;;;;;;;28.10;6.30;;;5.70;99.90;;;;;;5075871;28;20039;-62
2023/02/02 02:33:56;;;;;;;31.38;6.53;;;5.70;99.90;;;;;;5075866;28;20086;-62
2023/02/02 02:36:31;;;;;;;16.00;5.40;;;5.80;99.90;;;;;;5075861;28;20073;-62
2023/02/02 02:39:14;;;;;;;24.40;6.15;;;5.80;99.90;;;;;;5076064;28;20021;-62
2023/02/02 02:41:47;;;;;;;20.98;6.22;;;5.80;99.90;;;;;;5076083;28;20513;-62
2023/02/02 02:44:15;;;;;;;24.13;6.45;;;5.80;99.90;;;;;;5075903;28;20025;-62
2023/02/02 02:46:42;;;;;;;22.27;7.05;;;5.80;99.90;;;;;;5075875;28;20385;-62
2023/02/02 02:49:10;;;;;;;26.50;7.07;;;5.90;99.90;;;;;;5075579;28;20061;-62
2023/02/02 02:51:44;;;;;;;21.25;6.75;;;5.90;99.90;;;;;;5075599;28;20029;-62
2023/02/02 02:54:15;;;;;;;19.50;6.25;;;5.90;99.90;;;;;;5075825;28;20060;-62
2023/02/02 02:56:52;;;;;;;21.88;6.50;;;5.90;99.90;;;;;;5075514;28;20020;-62
2023/02/02 02:59:35;;;;;;;23.45;7.10;;;5.90;99.90;;;;;;5075471;28;20025;-63
2023/02/02 03:02:15;;;;;;;21.35;7.65;;;5.90;99.90;;;;;;5075469;28;20429;-62
2023/02/02 03:04:55;;;;;;;25.35;7.22;;;5.80;99.90;;;;;;5075381;28;20095;-62
2023/02/02 03:07:26;;;;;;;22.48;6.65;;;5.90;99.90;;;;;;5075568;28;20359;-62
2023/02/02 03:09:55;;;;;;;20.27;6.47;;;5.90;99.90;;;;;;5075335;28;20045;-62
2023/02/02 03:12:20;;;;;;;19.75;6.80;;;5.90;99.90;;;;;;5075173;28;20081;-62
2023/02/02 03:14:46;;;;;;;24.33;7.32;;;5.90;99.90;;;;;;5075219;28;20016;-63
2023/02/02 03:17:11;;;;;;;24.35;7.53;;;6.00;99.90;;;;;;5075013;28;20406;-62
2023/02/02 03:19:37;;;;;;;22.95;7.60;;;6.00;99.90;;;;;;5075139;28;20094;-62
2023/02/02 03:22:02;;;;;;;28.45;7.95;;;6.00;99.90;;;;;;5074184;28;20352;-62
2023/02/02 03:24:28;;;;;;;22.80;8.43;;;6.00;99.90;;;;;;5075030;28;20055;-62
2023/02/02 03:26:53;;;;;;;28.42;8.98;;;6.00;99.90;;;;;;5075213;28;20462;-62
2023/02/02 03:29:19;;;;;;;31.23;8.88;;;6.00;99.90;;;;;;5075136;28;20025;-63
2023/02/02 03:31:45;;;;;;;23.88;9.32;;;6.00;99.90;;;;;;5075143;28;20470;-62
2023/02/02 03:34:11;;;;;;;26.38;10.13;;;6.00;99.90;;;;;;5074752;28;20025;-62
2023/02/02 03:36:37;;;;;;;33.40;9.90;;;6.10;99.90;;;;;;5073510;28;20020;-62
2023/02/02 03:39:02;;;;;;;35.90;10.60;;;6.10;99.90;;;;;;5074650;28;20112;-62
2023/02/02 03:41:28;;;;;;;33.88;11.00;;;6.10;99.90;;;;;;5074607;28;20085;-62
2023/02/02 03:43:53;;;;;;;31.85;9.73;;;6.10;99.90;;;;;;5074637;28;20108;-62
2023/02/02 03:46:19;;;;;;;31.48;11.13;;;6.10;99.90;;;;;;5074624;28;20028;-63
2023/02/02 03:48:44;;;;;;;29.60;10.40;;;6.10;99.90;;;;;;5074516;28;20033;-62
2023/02/02 03:51:12;;;;;;;34.13;11.43;;;6.10;99.90;;;;;;5074670;28;20028;-63
2023/02/02 03:53:43;;;;;;;23.13;9.43;;;6.10;99.90;;;;;;5074660;28;20032;-62
2023/02/02 03:56:08;;;;;;;33.08;10.63;;;6.10;99.90;;;;;;5074337;28;20032;-62
2023/02/02 03:58:34;;;;;;;36.13;10.13;;;6.10;99.90;;;;;;5074246;28;20474;-62
2023/02/02 04:01:05;;;;;;;30.17;10.60;;;6.10;99.90;;;;;;5073916;28;20023;-62
2023/02/02 04:03:30;;;;;;;25.00;10.02;;;6.20;99.90;;;;;;5072742;28;20052;-62
2023/02/02 04:05:56;;;;;;;31.23;10.55;;;6.20;99.90;;;;;;5074403;28;20052;-62
2023/02/02 04:08:21;;;;;;;33.30;11.35;;;6.20;99.90;;;;;;5074363;28;20466;-62
2023/02/02 04:10:47;;;;;;;28.42;10.30;;;6.20;99.90;;;;;;5074132;28;20078;-62
2023/02/02 04:13:13;;;;;;;28.38;9.77;;;6.20;99.90;;;;;;5074054;28;20025;-62
2023/02/02 04:15:38;;;;;;;34.05;11.15;;;6.20;99.90;;;;;;5073964;28;20041;-62
2023/02/02 04:18:04;;;;;;;39.95;11.18;;;6.20;99.90;;;;;;5073711;28;20125;-62
2023/02/02 04:20:29;;;;;;;34.03;10.75;;;6.30;99.90;;;;;;5073871;28;20021;-62
2023/02/02 04:22:55;;;;;;;34.35;11.57;;;6.30;99.90;;;;;;5074049;28;20047;-62
2023/02/02 04:25:20;;;;;;;29.02;11.73;;;6.30;99.90;;;;;;5073819;28;20024;-62
2023/02/02 04:27:46;;;;;;;26.63;11.00;;;6.20;99.90;;;;;;5073900;28;20166;-62
2023/02/02 04:30:12;;;;;;;34.78;12.10;;;6.30;99.90;;;;;;5073643;28;20537;-62
2023/02/02 04:32:37;;;;;;;30.52;11.93;;;6.30;99.90;;;;;;5073914;28;20110;-62
2023/02/02 04:35:03;;;;;;;39.28;12.90;;;6.30;99.90;;;;;;5073626;28;20031;-62
2023/02/02 04:37:31;;;;;;;41.85;12.32;;;6.30;99.90;;;;;;5072599;28;20498;-62
2023/02/02 04:39:56;;;;;;;41.22;11.65;;;6.30;99.90;;;;;;5073784;28;20099;-62
2023/02/02 04:42:22;;;;;;;42.38;13.32;;;6.30;99.90;;;;;;5073554;28;20044;-62
2023/02/02 04:44:48;;;;;;;31.63;11.98;;;6.30;99.90;;;;;;5073571;28;20458;-62
2023/02/02 04:47:13;;;;;;;37.92;12.55;;;6.20;99.90;;;;;;5073754;28;20029;-64
2023/02/02 04:49:39;;;;;;;28.60;11.27;;;6.20;99.90;;;;;;5073707;28;20021;-63
2023/02/02 04:52:05;;;;;;;34.17;11.57;;;6.20;99.90;;;;;;5073664;28;20138;-62
2023/02/02 04:54:31;;;;;;;31.13;10.10;;;6.30;99.90;;;;;;5073343;28;20025;-62
2023/02/02 04:56:56;;;;;;;35.28;11.15;;;6.20;99.90;;;;;;5072140;28;20078;-62
2023/02/02 04:59:22;;;;;;;31.63;9.77;;;6.20;99.90;;;;;;5072114;28;20470;-62
2023/02/02 05:01:49;;;;;;;30.60;10.68;;;6.20;99.90;;;;;;5072009;28;20446;-62
2023/02/02 05:04:15;;;;;;;31.92;8.52;;;6.20;99.90;;;;;;5073312;28;20017;-62
2023/02/02 05:06:41;;;;;;;21.08;8.10;;;6.20;99.90;;;;;;5072293;28;20027;-62
2023/02/02 05:09:06;;;;;;;25.92;8.00;;;6.20;99.90;;;;;;5073246;28;20031;-63
2023/02/02 05:11:32;;;;;;;21.70;7.55;;;6.10;99.90;;;;;;5073087;28;20032;-62
2023/02/02 05:13:58;;;;;;;25.33;7.72;;;6.10;99.90;;;;;;5072937;28;20094;-62
2023/02/02 05:16:23;;;;;;;25.27;8.15;;;6.10;99.90;;;;;;5073181;28;20028;-62
2023/02/02 05:18:51;;;;;;;29.13;7.95;;;6.10;99.90;;;;;;5072781;28;20048;-63
2023/02/02 05:21:18;;;;;;;38.80;8.32;;;6.10;99.90;;;;;;5073392;28;20044;-62
2023/02/02 05:23:43;;;;;;;25.27;8.38;;;6.10;99.90;;;;;;5073280;28;20101;-63
2023/02/02 05:26:15;;;;;;;21.88;8.25;;;6.10;99.90;;;;;;5073215;28;20472;-63
2023/02/02 05:28:41;;;;;;;25.52;8.02;;;6.10;99.90;;;;;;5073222;28;20043;-63
2023/02/02 05:31:07;;;;;;;32.35;8.80;;;6.10;99.90;;;;;;5072960;28;20039;-63
2023/02/02 05:33:33;;;;;;;30.33;9.68;;;6.10;99.90;;;;;;5073223;28;20441;-63
2023/02/02 05:35:58;;;;;;;23.67;8.60;;;6.10;99.90;;;;;;5071811;28;20413;-63
2023/02/02 05:38:24;;;;;;;33.78;9.70;;;6.10;99.90;;;;;;5072915;28;20122;-63
2023/02/02 05:40:49;;;;;;;26.77;9.18;;;6.10;99.90;;;;;;5072991;28;20016;-63
2023/02/02 05:43:15;;;;;;;33.97;9.32;;;6.10;99.90;;;;;;5073128;28;20028;-63
2023/02/02 05:45:41;;;;;;;21.98;9.27;;;6.10;99.90;;;;;;5072770;28;20399;-63
2023/02/02 05:48:07;;;;;;;25.40;8.80;;;6.10;99.90;;;;;;5072798;28;20032;-63
2023/02/02 05:50:33;;;;;;;18.85;8.40;;;6.10;99.90;;;;;;5071603;28;20029;-62
2023/02/02 05:52:59;;;;;;;29.35;8.93;;;6.10;99.90;;;;;;5072822;28;20055;-62
2023/02/02 05:55:24;;;;;;;26.63;9.63;;;6.20;99.90;;;;;;5073024;28;20055;-62
2023/02/02 05:57:50;;;;;;;22.13;8.75;;;6.10;99.90;;;;;;5072873;28;20074;-62
2023/02/02 06:00:16;;;;;;;22.50;9.88;;;6.10;99.90;;;;;;5072779;28;20033;-62
2023/02/02 06:02:41;;;;;;;24.75;10.70;;;6.10;99.90;;;;;;5072662;28;20109;-62
2023/02/02 06:05:07;;;;;;;20.67;10.07;;;6.20;99.90;;;;;;5072729;28;20020;-62
2023/02/02 06:07:32;;;;;;;28.90;10.57;;;6.20;99.90;;;;;;5072865;28;20020;-62
2023/02/02 06:09:58;;;;;;;28.55;11.80;;;6.20;99.90;;;;;;5072881;28;20033;-62
2023/02/02 06:12:23;;;;;;;28.92;11.70;;;6.20;99.90;;;;;;5072845;28;20027;-62
2023/02/02 06:14:49;;;;;;;27.63;12.02;;;6.20;99.90;;;;;;5072506;28;20082;-64
2023/02/02 06:17:15;;;;;;;31.67;13.73;;;6.30;99.90;;;;;;5072234;28;20055;-62
2023/02/02 06:19:40;;;;;;;35.30;13.80;;;6.30;99.90;;;;;;5072519;28;20067;-62
2023/02/02 06:22:06;;;;;;;28.15;12.48;;;6.30;99.90;;;;;;5072528;28;20025;-62
2023/02/02 06:24:31;;;;;;;35.72;13.02;;;6.30;99.90;;;;;;5072690;28;20024;-62
2023/02/02 06:26:57;;;;;;;29.65;14.40;;;6.40;99.90;;;;;;5076161;28;20158;-62
2023/02/02 06:29:22;;;;;;;44.80;15.13;;;6.40;99.90;;;;;;5074825;28;20029;-62
2023/02/02 06:31:48;;;;;;;37.53;16.00;;;6.40;99.90;;;;;;5076099;28;20037;-62
2023/02/02 06:34:13;;;;;;;37.13;14.45;;;6.50;99.90;;;;;;5075941;28;20032;-62
2023/02/02 06:36:40;;;;;;;35.67;15.18;;;6.40;99.90;;;;;;5076123;28;20032;-62
2023/02/02 06:39:06;;;;;;;39.42;15.93;;;6.50;99.90;;;;;;5076001;28;20055;-62
2023/02/02 06:41:33;;;;;;;38.78;15.73;;;6.50;99.90;;;;;;5075781;28;20028;-62
2023/02/02 06:43:58;;;;;;;34.95;15.88;;;6.50;99.90;;;;;;5076091;28;20398;-62
2023/02/02 06:46:24;;;;;;;43.55;16.30;;;6.60;99.90;;;;;;5075766;28;20027;-62
2023/02/02 06:48:49;;;;;;;39.33;17.13;;;6.50;99.90;;;;;;5075699;28;20025;-63
2023/02/02 06:51:15;;;;;;;40.72;16.15;;;6.60;99.90;;;;;;5075847;28;20029;-62
2023/02/02 06:53:40;;;;;;;41.08;17.17;;;6.60;99.90;;;;;;5075854;28;20028;-62
2023/02/02 06:56:10;;;;;;;44.38;17.38;;;6.60;99.90;;;;;;5075568;28;20092;-61
2023/02/02 06:58:36;;;;;;;41.20;16.35;;;6.60;99.90;;;;;;5075432;28;20071;-61
2023/02/02 07:01:07;;;;;;;40.65;16.98;;;6.60;99.90;;;;;;5075459;28;20032;-62
2023/02/02 07:03:33;;;;;;;34.30;16.73;;;6.70;99.90;;;;;;5075636;28;20024;-62
2023/02/02 07:06:08;;;;;;;45.65;16.92;;;6.70;99.90;;;;;;5075387;28;20441;-61
2023/02/02 07:08:34;;;;;;;47.10;17.23;;;6.70;99.90;;;;;;5075047;28;20078;-61
2023/02/02 07:11:00;;;;;;;41.35;17.65;;;6.70;99.90;;;;;;5075034;28;20029;-61
2023/02/02 07:13:25;;;;;;;44.45;17.55;;;6.70;99.90;;;;;;5073120;28;20459;-62
2023/02/02 07:15:51;;;;;;;53.63;17.55;;;6.70;99.90;;;;;;5075575;28;20505;-64
2023/02/02 07:18:16;;;;;;;48.80;19.00;;;6.70;99.90;;;;;;5074698;28;20087;-62
2023/02/02 07:20:42;;;;;;;45.42;18.73;;;6.70;99.90;;;;;;5072720;28;20036;-61
2023/02/02 07:23:07;;;;;;;42.85;17.75;;;6.70;99.90;;;;;;5071928;28;20027;-62
2023/02/02 07:25:33;;;;;;;40.47;17.33;;;6.70;99.90;;;;;;5072887;28;20024;-62
2023/02/02 07:27:58;;;;;;;40.95;17.45;;;6.80;99.90;;;;;;5073076;28;20032;-63
2023/02/02 07:30:24;;;;;;;46.83;17.90;;;6.80;99.90;;;;;;5063621;28;20035;-62
2023/02/02 07:32:49;;;;;;;42.53;16.73;;;6.80;99.90;;;;;;5062435;28;20506;-62
2023/02/02 07:35:16;;;;;;;40.45;17.48;;;6.80;99.90;;;;;;5065526;28;20032;-62
2023/02/02 07:37:42;;;;;;;37.25;16.85;;;6.80;99.90;;;;;;5067474;28;20506;-61
2023/02/02 07:40:08;;;;;;;36.67;17.42;;;6.80;99.90;;;;;;5069621;28;20072;-62
2023/02/02 07:42:34;;;;;;;46.83;16.95;;;6.80;99.90;;;;;;5059259;28;20513;-62
2023/02/02 07:45:00;;;;;;;38.08;16.92;;;6.90;99.90;;;;;;5062829;28;20024;-62
2023/02/02 07:47:25;;;;;;;40.47;15.65;;;6.90;99.90;;;;;;5058475;28;20038;-62
2023/02/02 07:49:51;;;;;;;40.13;16.83;;;6.90;99.90;;;;;;5065100;28;20028;-62
2023/02/02 07:52:16;;;;;;;36.00;15.90;;;6.90;99.90;;;;;;5073187;28;20078;-67
2023/02/02 07:54:42;;;;;;;36.03;14.43;;;6.90;99.90;;;;;;5054423;28;20107;-63
2023/02/02 07:57:08;;;;;;;38.50;15.55;;;6.90;99.90;;;;;;5062768;28;20061;-65
2023/02/02 07:59:33;;;;;;;37.00;15.10;;;6.90;99.90;;;;;;5065217;28;20055;-62
2023/02/02 08:01:59;;;;;;;38.10;15.90;;;6.90;99.90;;;;;;5067500;28;20047;-63
2023/02/02 08:04:24;;;;;;;37.67;15.48;;;6.90;99.90;;;;;;5063508;28;20043;-63
2023/02/02 08:06:50;;;;;;;31.02;14.48;;;7.00;99.90;;;;;;5061635;28;20717;-63
2023/02/02 08:09:15;;;;;;;38.25;14.77;;;7.00;99.90;;;;;;5066981;28;20028;-63
2023/02/02 08:11:41;;;;;;;37.75;15.73;;;6.90;99.90;;;;;;5069616;28;20059;-63
2023/02/02 08:14:07;;;;;;;29.60;14.45;;;7.00;99.90;;;;;;5071464;28;20036;-62
2023/02/02 08:16:33;;;;;;;35.58;13.70;;;7.00;99.90;;;;;;5063816;28;20754;-63
2023/02/02 08:18:59;;;;;;;27.58;12.45;;;7.00;99.90;;;;;;5060310;28;20088;-62
2023/02/02 08:21:24;;;;;;;27.73;13.25;;;7.00;99.90;;;;;;5058983;28;20490;-63
2023/02/02 08:23:52;;;;;;;34.85;13.95;;;7.00;99.90;;;;;;5071599;28;20440;-62
2023/02/02 08:26:20;;;;;;;31.83;13.73;;;7.00;99.90;;;;;;5066278;28;20024;-62
2023/02/02 08:28:48;;;;;;;35.45;14.35;;;7.00;99.90;;;;;;5061779;28;20044;-62
2023/02/02 08:31:18;;;;;;;25.75;12.23;;;7.00;99.90;;;;;;5070335;28;20098;-61
2023/02/02 08:33:44;;;;;;;27.75;12.65;;;7.10;99.90;;;;;;5064368;28;20025;-61
2023/02/02 08:36:13;;;;;;;30.27;13.30;;;7.10;99.90;;;;;;5068982;28;20024;-62
2023/02/02 08:38:39;;;;;;;33.00;13.13;;;7.00;99.90;;;;;;5067324;28;20036;-62
2023/02/02 08:41:06;;;;;;;35.10;14.20;;;7.10;99.90;;;;;;5067189;28;20200;-62
2023/02/02 08:43:32;;;;;;;34.03;13.15;;;7.10;99.90;;;;;;5066815;28;20565;-62
2023/02/02 08:45:58;;;;;;;21.52;8.60;;;7.10;99.90;;;;;;5058856;28;20049;-62
2023/02/02 08:48:23;;;;;;;16.65;7.25;;;7.00;99.90;;;;;;5066841;28;20041;-62
2023/02/02 08:50:53;;;;;;;10.02;4.57;;;6.80;99.90;;;;;;5062844;28;20166;-62
2023/02/02 08:53:19;;;;;;;11.45;5.10;;;6.60;99.90;;;;;;5067480;28;20032;-62
2023/02/02 08:55:45;;;;;;;8.95;4.00;;;6.50;99.90;;;;;;5064718;28;20077;-63
2023/02/02 08:58:11;;;;;;;8.75;3.55;;;6.40;99.90;;;;;;5069374;28;20044;-62
2023/02/02 09:00:36;;;;;;;10.65;3.75;;;6.10;99.90;;;;;;5062711;28;20036;-65
2023/02/02 09:03:02;;;;;;;9.10;3.28;;;6.10;99.90;;;;;;5060074;28;20036;-62
2023/02/02 09:05:27;;;;;;;9.85;3.58;;;5.90;99.90;;;;;;5063582;28;20405;-65
2023/02/02 09:07:53;;;;;;;7.40;3.60;;;5.80;99.90;;;;;;5066757;28;20028;-63
2023/02/02 09:10:19;;;;;;;6.47;3.20;;;5.60;99.90;;;;;;5062583;28;20111;-64
2023/02/02 09:12:44;;;;;;;12.40;3.50;;;5.50;99.90;;;;;;5062830;28;20426;-62
2023/02/02 09:15:11;;;;;;;10.68;3.67;;;5.40;99.90;;;;;;5061281;28;20115;-62
2023/02/02 09:17:37;;;;;;;12.75;3.38;;;5.30;99.90;;;;;;5064255;28;20075;-62
2023/02/02 09:20:03;;;;;;;8.63;3.60;;;5.30;99.90;;;;;;5070778;28;20025;-62
2023/02/02 09:22:29;;;;;;;8.82;3.70;;;5.40;99.90;;;;;;5067603;28;20031;-62
2023/02/02 09:24:54;;;;;;;10.90;3.22;;;5.40;99.90;;;;;;5069875;28;20107;-62
2023/02/02 09:27:20;;;;;;;9.75;3.10;;;5.40;99.90;;;;;;5061028;28;20021;-62
2023/02/02 09:29:46;;;;;;;6.70;3.15;;;5.30;99.90;;;;;;5062539;28;20017;-63
2023/02/02 09:32:11;;;;;;;16.52;4.22;;;5.30;99.90;;;;;;5066027;28;20192;-62
2023/02/02 09:34:37;;;;;;;13.40;3.83;;;5.40;99.90;;;;;;5071440;28;20060;-62
2023/02/02 09:37:02;;;;;;;6.72;3.60;;;5.40;99.90;;;;;;5066183;28;20035;-62
2023/02/02 09:39:28;;;;;;;12.25;4.32;;;5.40;99.90;;;;;;5070561;28;20037;-62
2023/02/02 09:42:21;;;;;;;17.60;5.13;;;5.50;99.90;;;;;;5058849;28;20083;-62
2023/02/02 09:45:07;;;;;;;;;;;5.50;99.90;;;;;;5062917;28;20405;-62
2023/02/02 09:47:55;;;;;;;13.95;4.53;;;5.60;99.90;;;;;;5065609;28;19962;-62
2023/02/02 09:53:07;;;;;;;14.18;6.10;;;5.50;99.90;;;;;;5101539;27;20946;-62
2023/02/02 09:55:37;;;;;;;19.13;7.97;;;5.50;99.90;;;;;;5108835;28;20111;-62
2023/02/02 09:58:28;;;;;;;14.70;5.10;;;5.40;99.90;;;;;;5104925;28;20469;-62
2023/02/02 10:01:16;;;;;;;12.77;4.13;;;5.40;99.90;;;;;;5101715;28;20024;-63
2023/02/02 10:06:40;;;;;;;13.65;5.38;;;5.50;99.90;;;;;;5058348;28;20381;-62
2023/02/02 10:09:33;;;;;;;12.45;5.38;;;5.50;99.90;;;;;;5063853;28;20046;-62
2023/02/02 10:12:42;;;;;;;15.50;4.87;;;5.50;99.90;;;;;;5066914;28;20025;-63
2023/02/02 10:15:22;;;;;;;20.00;5.90;;;5.60;99.90;;;;;;5062013;28;20075;-63
2023/02/02 10:18:19;;;;;;;11.88;3.75;;;5.60;99.90;;;;;;5059445;28;20029;-63
2023/02/02 10:20:56;;;;;;;8.85;3.95;;;5.60;99.90;;;;;;5065474;28;20108;-63
2023/02/02 10:23:36;;;;;;;15.23;4.90;;;5.60;99.90;;;;;;5063905;28;20056;-63
2023/02/02 10:26:15;;;;;;;10.68;4.40;;;5.70;99.90;;;;;;5060020;28;20039;-63
2023/02/02 10:29:01;;;;;;;15.40;7.40;;;5.70;99.90;;;;;;5065077;28;20021;-63
2023/02/02 10:31:54;;;;;;;9.20;4.15;;;5.70;99.90;;;;;;5071925;28;20026;-63
2023/02/02 10:34:30;;;;;;;9.85;3.88;;;5.80;99.90;;;;;;5057774;28;20028;-63
2023/02/02 10:37:22;;;;;;;9.00;4.10;;;5.80;99.90;;;;;;5057977;28;20108;-63
2023/02/02 10:40:13;;;;;;;7.07;4.30;;;5.80;99.90;;;;;;5064296;28;20025;-68
2023/02/02 10:45:50;;;;;;;11.20;4.72;;;5.80;99.90;;;;;;5063439;28;20084;-65
2023/02/02 10:48:19;;;;;;;11.95;4.40;;;5.90;99.90;;;;;;5060899;28;20017;-65
2023/02/02 10:50:53;;;;;;;11.25;4.13;;;5.80;99.90;;;;;;5053056;28;20033;-66
2023/02/02 10:53:19;;;;;;;9.77;4.40;;;5.80;99.90;;;;;;5056648;28;20431;-65
2023/02/02 10:56:04;;;;;;;9.73;4.28;;;5.80;99.90;;;;;;5065812;28;20037;-65
2023/02/02 10:58:39;;;;;;;8.70;4.00;;;5.80;99.90;;;;;;5051688;28;20116;-65
2023/02/02 11:01:10;;;;;;;8.80;4.18;;;5.80;99.90;;;;;;5062460;28;20115;-65
2023/02/02 11:03:36;;;;;;;10.88;3.67;;;5.70;99.90;;;;;;5064031;28;20028;-64
2023/02/02 11:08:55;;;;;;;9.60;3.85;;;5.70;99.90;;;;;;5063122;28;20032;-65
2023/02/02 11:11:29;;;;;;;10.52;3.50;;;5.60;99.90;;;;;;5065406;28;20031;-65
2023/02/02 11:14:15;;;;;;;16.33;4.10;;;5.70;99.90;;;;;;5058016;28;20024;-67
2023/02/02 11:16:43;;;;;;;12.30;4.03;;;5.70;99.90;;;;;;5059921;28;20025;-65
2023/02/02 11:19:21;;;;;;;10.95;3.95;;;5.60;99.90;;;;;;5047350;28;20032;-63
2023/02/02 11:21:52;;;;;;;15.70;4.15;;;5.60;99.90;;;;;;5050696;28;20386;-64
2023/02/02 11:24:26;;;;;;;10.07;3.78;;;5.60;99.90;;;;;;5051945;28;20079;-63
2023/02/02 11:26:56;;;;;;;8.05;4.57;;;5.70;99.90;;;;;;5059676;28;20021;-64
2023/02/02 11:29:47;;;;;;;11.70;6.75;;;5.70;99.90;;;;;;5037361;28;20033;-65
2023/02/02 11:32:31;;;;;;;11.77;5.00;;;5.70;99.90;;;;;;5045787;28;20104;-64
2023/02/02 11:35:17;;;;;;;10.30;4.38;;;5.80;99.90;;;;;;5049382;28;20036;-65
2023/02/02 11:37:54;;;;;;;10.57;4.50;;;5.80;99.90;;;;;;5044153;28;20403;-66
2023/02/02 11:40:42;;;;;;;8.52;5.03;;;5.70;99.90;;;;;;5048255;28;20045;-65
2023/02/02 11:43:22;;;;;;;14.65;4.75;;;5.80;99.90;;;;;;5046161;28;20079;-65
2023/02/02 11:45:58;;;;;;;10.75;4.22;;;5.70;99.90;;;;;;5054435;28;20035;-65
2023/02/02 11:48:29;;;;;;;9.50;4.03;;;5.70;99.90;;;;;;5043041;28;20056;-65
2023/02/02 11:50:57;;;;;;;8.60;4.07;;;5.80;99.90;;;;;;5044298;28;20031;-64
2023/02/02 11:53:30;;;;;;;11.43;4.47;;;5.80;99.90;;;;;;5048344;28;20410;-67
2023/02/02 11:55:59;;;;;;;11.77;4.70;;;5.80;99.90;;;;;;5047904;28;20104;-65
2023/02/02 11:58:28;;;;;;;13.27;4.88;;;5.70;99.90;;;;;;5034556;28;20483;-66
2023/02/02 12:01:02;;;;;;;12.40;4.07;;;5.80;99.90;;;;;;5039156;28;20552;-64
2023/02/02 12:03:35;;;;;;;9.98;4.60;;;5.80;99.90;;;;;;5042515;28;20094;-65
2023/02/02 12:06:18;;;;;;;12.90;4.72;;;5.80;99.90;;;;;;5041232;28;20071;-66
2023/02/02 12:08:43;;;;;;;10.43;4.72;;;5.80;99.90;;;;;;5051146;28;20553;-65
2023/02/02 12:11:20;;;;;;;11.98;4.88;;;5.80;99.90;;;;;;5042602;28;20032;-65
2023/02/02 12:14:00;;;;;;;13.77;4.10;;;5.80;99.90;;;;;;5049352;28;20048;-66
2023/02/02 12:19:58;;;;;;;11.38;3.95;;;5.80;99.90;;;;;;5058739;28;20450;-64
2023/02/02 12:22:50;;;;;;;14.07;4.40;;;5.80;99.90;;;;;;5066141;28;20065;-64
2023/02/02 12:25:47;;;;;;;17.40;5.07;;;6.00;99.90;;;;;;5058490;28;20386;-65
2023/02/02 12:28:53;;;;;;;11.40;4.80;;;5.90;99.90;;;;;;5064040;28;20043;-65
2023/02/02 12:31:58;;;;;;;11.25;4.45;;;5.80;99.90;;;;;;5067649;28;20560;-63
2023/02/02 12:34:39;;;;;;;12.07;4.40;;;5.90;99.90;;;;;;5064768;28;20033;-67
2023/02/02 12:37:43;;;;;;;10.95;4.53;;;5.90;99.90;;;;;;5057933;28;20479;-64
2023/02/02 12:40:30;;;;;;;11.18;4.82;;;5.80;99.90;;;;;;5065666;28;20079;-64
2023/02/02 12:43:16;;;;;;;11.80;4.65;;;5.80;99.90;;;;;;5062177;28;20508;-64
2023/02/02 12:45:54;;;;;;;15.32;5.53;;;5.80;99.90;;;;;;5067072;28;20032;-64
2023/02/02 12:48:45;;;;;;;15.15;5.72;;;5.90;99.90;;;;;;5064539;28;20086;-64
2023/02/02 12:51:28;;;;;;;14.45;6.97;;;5.90;99.90;;;;;;5064965;28;20478;-64
2023/02/02 12:54:22;;;;;;;12.38;6.88;;;5.90;99.90;;;;;;5066010;28;20071;-64
2023/02/02 12:57:01;;;;;;;12.32;8.10;;;5.90;99.90;;;;;;5062970;28;20505;-64
2023/02/02 12:59:55;;;;;;;15.25;9.57;;;5.90;99.90;;;;;;5064703;28;20043;-64
2023/02/02 13:02:54;;;;;;;20.13;11.65;;;5.90;99.90;;;;;;5061713;28;20033;-65
2023/02/02 13:05:59;;;;;;;25.70;12.38;;;6.00;99.90;;;;;;5059082;28;20029;-65
2023/02/02 13:08:38;;;;;;;19.52;10.10;;;6.00;99.90;;;;;;5061965;28;20541;-64
2023/02/02 13:11:28;;;;;;;17.95;9.93;;;5.90;99.90;;;;;;5060756;28;20474;-64
2023/02/02 13:13:58;;;;;;;17.50;9.55;;;5.80;99.90;;;;;;5063845;28;20082;-65
2023/02/02 13:16:25;;;;;;;16.48;9.27;;;5.80;99.90;;;;;;5062760;28;20028;-65
2023/02/02 13:18:57;;;;;;;13.75;7.57;;;5.80;99.90;;;;;;5057159;28;20140;-64
2023/02/02 13:21:23;;;;;;;8.35;5.78;;;5.80;99.90;;;;;;5065592;28;20081;-64
2023/02/02 13:23:52;;;;;;;12.05;7.13;;;5.70;99.90;;;;;;5056715;28;20035;-64
2023/02/02 13:26:23;;;;;;;17.45;11.77;;;5.70;99.90;;;;;;5042191;28;20029;-64
2023/02/02 13:29:10;;;;;;;9.13;7.03;;;5.70;99.90;;;;;;5057308;28;20024;-64